sensor_id;sensor_type;location;lat;lon;timestamp;P1;durP1;ratioP1;P2;durP2;ratioP2
45198;SDS011;30941;46.422;18.772;2023-12-20T00:01:14;111.43;;;48.88;;
45198;SDS011;30941;46.422;18.772;2023-12-20T00:03:40;121.65;;;48.40;;
45198;SDS011;30941;46.422;18.772;2023-12-20T00:06:05;139.63;;;50.00;;
45198;SDS011;30941;46.422;18.772;2023-12-20T00:08:30;123.22;;;49.70;;
45198;SDS011;30941;46.422;18.772;2023-12-20T00:10:56;120.75;;;48.08;;
45198;SDS011;30941;46.422;18.772;2023-12-20T00:13:21;136.82;;;52.10;;
45198;SDS011;30941;46.422;18.772;2023-12-20T00:15:47;148.38;;;50.97;;
45198;SDS011;30941;46.422;18.772;2023-12-20T00:18:12;158.93;;;49.00;;
45198;SDS011;30941;46.422;18.772;2023-12-20T00:20:37;137.10;;;50.03;;
45198;SDS011;30941;46.422;18.772;2023-12-20T00:23:03;116.88;;;48.80;;
45198;SDS011;30941;46.422;18.772;2023-12-20T00:25:28;119.35;;;50.63;;
45198;SDS011;30941;46.422;18.772;2023-12-20T00:27:54;133.57;;;50.30;;
45198;SDS011;30941;46.422;18.772;2023-12-20T00:30:19;158.10;;;50.58;;
45198;SDS011;30941;46.422;18.772;2023-12-20T00:32:44;131.13;;;49.38;;
45198;SDS011;30941;46.422;18.772;2023-12-20T00:35:15;135.38;;;51.92;;
45198;SDS011;30941;46.422;18.772;2023-12-20T00:37:40;119.03;;;50.35;;
45198;SDS011;30941;46.422;18.772;2023-12-20T00:40:06;146.93;;;49.65;;
45198;SDS011;30941;46.422;18.772;2023-12-20T00:42:32;148.32;;;48.33;;
45198;SDS011;30941;46.422;18.772;2023-12-20T00:44:58;139.50;;;50.28;;
45198;SDS011;30941;46.422;18.772;2023-12-20T00:47:24;147.60;;;50.17;;
45198;SDS011;30941;46.422;18.772;2023-12-20T00:49:50;148.15;;;49.75;;
45198;SDS011;30941;46.422;18.772;2023-12-20T00:52:15;145.40;;;50.47;;
45198;SDS011;30941;46.422;18.772;2023-12-20T00:54:42;176.07;;;49.83;;
45198;SDS011;30941;46.422;18.772;2023-12-20T00:57:08;162.50;;;49.00;;
45198;SDS011;30941;46.422;18.772;2023-12-20T00:59:33;128.25;;;49.78;;
45198;SDS011;30941;46.422;18.772;2023-12-20T01:01:59;147.98;;;48.50;;
45198;SDS011;30941;46.422;18.772;2023-12-20T01:04:24;121.70;;;51.17;;
45198;SDS011;30941;46.422;18.772;2023-12-20T01:06:49;132.95;;;51.10;;
45198;SDS011;30941;46.422;18.772;2023-12-20T01:09:15;125.60;;;47.65;;
45198;SDS011;30941;46.422;18.772;2023-12-20T01:11:40;123.18;;;48.15;;
45198;SDS011;30941;46.422;18.772;2023-12-20T01:14:05;109.63;;;48.45;;
45198;SDS011;30941;46.422;18.772;2023-12-20T01:16:31;112.55;;;49.25;;
45198;SDS011;30941;46.422;18.772;2023-12-20T01:18:56;114.43;;;46.15;;
45198;SDS011;30941;46.422;18.772;2023-12-20T01:21:21;120.03;;;47.10;;
45198;SDS011;30941;46.422;18.772;2023-12-20T01:23:47;131.15;;;47.17;;
45198;SDS011;30941;46.422;18.772;2023-12-20T01:26:12;125.47;;;47.83;;
45198;SDS011;30941;46.422;18.772;2023-12-20T01:28:38;140.45;;;44.05;;
45198;SDS011;30941;46.422;18.772;2023-12-20T01:31:03;121.80;;;48.17;;
45198;SDS011;30941;46.422;18.772;2023-12-20T01:33:29;123.38;;;45.67;;
45198;SDS011;30941;46.422;18.772;2023-12-20T01:35:54;97.55;;;45.22;;
45198;SDS011;30941;46.422;18.772;2023-12-20T01:38:20;102.13;;;42.40;;
45198;SDS011;30941;46.422;18.772;2023-12-20T01:40:45;121.97;;;47.58;;
45198;SDS011;30941;46.422;18.772;2023-12-20T01:43:10;126.70;;;44.95;;
45198;SDS011;30941;46.422;18.772;2023-12-20T01:45:38;143.75;;;45.17;;
45198;SDS011;30941;46.422;18.772;2023-12-20T01:48:04;146.68;;;46.55;;
45198;SDS011;30941;46.422;18.772;2023-12-20T01:50:31;141.63;;;45.55;;
45198;SDS011;30941;46.422;18.772;2023-12-20T01:52:57;113.20;;;45.08;;
45198;SDS011;30941;46.422;18.772;2023-12-20T01:55:24;142.60;;;46.03;;
45198;SDS011;30941;46.422;18.772;2023-12-20T01:57:50;153.70;;;43.78;;
45198;SDS011;30941;46.422;18.772;2023-12-20T02:00:15;129.35;;;47.10;;
45198;SDS011;30941;46.422;18.772;2023-12-20T02:02:41;141.80;;;48.58;;
45198;SDS011;30941;46.422;18.772;2023-12-20T02:05:08;140.82;;;50.00;;
45198;SDS011;30941;46.422;18.772;2023-12-20T02:07:34;136.00;;;48.30;;
45198;SDS011;30941;46.422;18.772;2023-12-20T02:10:00;149.93;;;47.08;;
45198;SDS011;30941;46.422;18.772;2023-12-20T02:12:29;143.75;;;46.40;;
45198;SDS011;30941;46.422;18.772;2023-12-20T02:14:54;132.63;;;47.83;;
45198;SDS011;30941;46.422;18.772;2023-12-20T02:17:20;141.25;;;46.25;;
45198;SDS011;30941;46.422;18.772;2023-12-20T02:19:45;133.80;;;47.42;;
45198;SDS011;30941;46.422;18.772;2023-12-20T02:22:11;122.70;;;47.03;;
45198;SDS011;30941;46.422;18.772;2023-12-20T02:24:37;116.15;;;45.83;;
45198;SDS011;30941;46.422;18.772;2023-12-20T02:27:02;136.30;;;46.45;;
45198;SDS011;30941;46.422;18.772;2023-12-20T02:29:28;113.80;;;47.88;;
45198;SDS011;30941;46.422;18.772;2023-12-20T02:31:53;95.85;;;44.13;;
45198;SDS011;30941;46.422;18.772;2023-12-20T02:34:19;99.97;;;43.28;;
45198;SDS011;30941;46.422;18.772;2023-12-20T02:36:44;116.28;;;46.78;;
45198;SDS011;30941;46.422;18.772;2023-12-20T02:39:09;106.80;;;43.92;;
45198;SDS011;30941;46.422;18.772;2023-12-20T02:41:35;108.75;;;41.17;;
45198;SDS011;30941;46.422;18.772;2023-12-20T02:44:01;109.88;;;41.88;;
45198;SDS011;30941;46.422;18.772;2023-12-20T02:46:26;93.57;;;44.20;;
45198;SDS011;30941;46.422;18.772;2023-12-20T02:48:52;110.50;;;42.03;;
45198;SDS011;30941;46.422;18.772;2023-12-20T02:51:17;117.43;;;40.78;;
45198;SDS011;30941;46.422;18.772;2023-12-20T02:53:42;119.35;;;40.90;;
45198;SDS011;30941;46.422;18.772;2023-12-20T02:56:08;125.70;;;43.83;;
45198;SDS011;30941;46.422;18.772;2023-12-20T02:58:33;130.68;;;41.65;;
45198;SDS011;30941;46.422;18.772;2023-12-20T03:00:58;112.13;;;41.17;;
45198;SDS011;30941;46.422;18.772;2023-12-20T03:03:24;133.73;;;39.17;;
45198;SDS011;30941;46.422;18.772;2023-12-20T03:05:50;152.05;;;40.05;;
45198;SDS011;30941;46.422;18.772;2023-12-20T03:08:15;112.22;;;40.08;;
45198;SDS011;30941;46.422;18.772;2023-12-20T03:10:40;125.53;;;42.25;;
45198;SDS011;30941;46.422;18.772;2023-12-20T03:13:06;95.65;;;41.38;;
45198;SDS011;30941;46.422;18.772;2023-12-20T03:15:31;121.07;;;40.72;;
45198;SDS011;30941;46.422;18.772;2023-12-20T03:17:56;105.22;;;40.55;;
45198;SDS011;30941;46.422;18.772;2023-12-20T03:20:24;150.38;;;42.00;;
45198;SDS011;30941;46.422;18.772;2023-12-20T03:22:51;133.32;;;43.78;;
45198;SDS011;30941;46.422;18.772;2023-12-20T03:25:16;138.82;;;45.53;;
45198;SDS011;30941;46.422;18.772;2023-12-20T03:27:41;143.88;;;46.70;;
45198;SDS011;30941;46.422;18.772;2023-12-20T03:30:07;157.15;;;46.08;;
45198;SDS011;30941;46.422;18.772;2023-12-20T03:32:32;133.65;;;46.05;;
45198;SDS011;30941;46.422;18.772;2023-12-20T03:34:58;144.02;;;43.85;;
45198;SDS011;30941;46.422;18.772;2023-12-20T03:37:23;127.20;;;42.67;;
45198;SDS011;30941;46.422;18.772;2023-12-20T03:39:48;153.00;;;44.28;;
45198;SDS011;30941;46.422;18.772;2023-12-20T03:42:14;168.13;;;44.67;;
45198;SDS011;30941;46.422;18.772;2023-12-20T03:44:39;123.63;;;45.17;;
45198;SDS011;30941;46.422;18.772;2023-12-20T03:47:07;147.60;;;42.97;;
45198;SDS011;30941;46.422;18.772;2023-12-20T03:49:33;134.98;;;43.03;;
45198;SDS011;30941;46.422;18.772;2023-12-20T03:51:58;130.57;;;39.85;;
45198;SDS011;30941;46.422;18.772;2023-12-20T03:54:23;135.90;;;42.67;;
45198;SDS011;30941;46.422;18.772;2023-12-20T03:56:49;125.53;;;42.70;;
45198;SDS011;30941;46.422;18.772;2023-12-20T03:59:15;102.72;;;40.33;;
45198;SDS011;30941;46.422;18.772;2023-12-20T04:01:43;157.40;;;44.72;;
45198;SDS011;30941;46.422;18.772;2023-12-20T04:04:10;128.77;;;43.10;;
45198;SDS011;30941;46.422;18.772;2023-12-20T04:06:35;113.13;;;41.85;;
45198;SDS011;30941;46.422;18.772;2023-12-20T04:09:01;157.35;;;43.25;;
45198;SDS011;30941;46.422;18.772;2023-12-20T04:11:26;113.25;;;42.22;;
45198;SDS011;30941;46.422;18.772;2023-12-20T04:13:52;125.22;;;42.97;;
45198;SDS011;30941;46.422;18.772;2023-12-20T04:16:17;128.93;;;42.85;;
45198;SDS011;30941;46.422;18.772;2023-12-20T04:18:42;125.32;;;42.00;;
45198;SDS011;30941;46.422;18.772;2023-12-20T04:21:07;123.20;;;40.60;;
45198;SDS011;30941;46.422;18.772;2023-12-20T04:23:33;90.72;;;40.40;;
45198;SDS011;30941;46.422;18.772;2023-12-20T04:25:58;96.70;;;40.05;;
45198;SDS011;30941;46.422;18.772;2023-12-20T04:28:23;117.57;;;40.88;;
45198;SDS011;30941;46.422;18.772;2023-12-20T04:30:49;114.65;;;41.28;;
45198;SDS011;30941;46.422;18.772;2023-12-20T04:33:14;103.70;;;38.58;;
45198;SDS011;30941;46.422;18.772;2023-12-20T04:35:39;102.28;;;37.80;;
45198;SDS011;30941;46.422;18.772;2023-12-20T04:38:06;105.45;;;39.97;;
45198;SDS011;30941;46.422;18.772;2023-12-20T04:40:31;91.65;;;40.25;;
45198;SDS011;30941;46.422;18.772;2023-12-20T04:42:57;100.40;;;37.55;;
45198;SDS011;30941;46.422;18.772;2023-12-20T04:45:22;91.82;;;38.95;;
45198;SDS011;30941;46.422;18.772;2023-12-20T04:47:49;103.72;;;41.05;;
45198;SDS011;30941;46.422;18.772;2023-12-20T04:50:15;104.65;;;39.33;;
45198;SDS011;30941;46.422;18.772;2023-12-20T04:52:40;93.40;;;39.42;;
45198;SDS011;30941;46.422;18.772;2023-12-20T04:55:06;87.82;;;38.83;;
45198;SDS011;30941;46.422;18.772;2023-12-20T04:57:31;89.18;;;39.63;;
45198;SDS011;30941;46.422;18.772;2023-12-20T04:59:57;93.97;;;38.80;;
45198;SDS011;30941;46.422;18.772;2023-12-20T05:02:22;87.65;;;37.83;;
45198;SDS011;30941;46.422;18.772;2023-12-20T05:04:48;85.55;;;38.45;;
45198;SDS011;30941;46.422;18.772;2023-12-20T05:07:13;84.72;;;38.40;;
45198;SDS011;30941;46.422;18.772;2023-12-20T05:09:38;91.20;;;36.92;;
45198;SDS011;30941;46.422;18.772;2023-12-20T05:12:04;86.32;;;37.15;;
45198;SDS011;30941;46.422;18.772;2023-12-20T05:14:30;78.85;;;35.30;;
45198;SDS011;30941;46.422;18.772;2023-12-20T05:16:55;78.57;;;35.88;;
45198;SDS011;30941;46.422;18.772;2023-12-20T05:19:21;75.53;;;35.35;;
45198;SDS011;30941;46.422;18.772;2023-12-20T05:21:48;69.75;;;36.00;;
45198;SDS011;30941;46.422;18.772;2023-12-20T05:24:13;96.47;;;33.15;;
45198;SDS011;30941;46.422;18.772;2023-12-20T05:26:38;85.35;;;34.85;;
45198;SDS011;30941;46.422;18.772;2023-12-20T05:29:04;82.28;;;35.05;;
45198;SDS011;30941;46.422;18.772;2023-12-20T05:31:31;79.80;;;34.55;;
45198;SDS011;30941;46.422;18.772;2023-12-20T05:33:56;86.18;;;33.65;;
45198;SDS011;30941;46.422;18.772;2023-12-20T05:36:22;76.55;;;36.90;;
45198;SDS011;30941;46.422;18.772;2023-12-20T05:38:47;79.15;;;33.45;;
45198;SDS011;30941;46.422;18.772;2023-12-20T05:41:12;80.65;;;34.35;;
45198;SDS011;30941;46.422;18.772;2023-12-20T05:43:38;89.60;;;36.58;;
45198;SDS011;30941;46.422;18.772;2023-12-20T05:46:04;77.53;;;34.72;;
45198;SDS011;30941;46.422;18.772;2023-12-20T05:48:29;76.47;;;37.00;;
45198;SDS011;30941;46.422;18.772;2023-12-20T05:50:55;92.03;;;37.53;;
45198;SDS011;30941;46.422;18.772;2023-12-20T05:53:20;73.57;;;32.92;;
45198;SDS011;30941;46.422;18.772;2023-12-20T05:55:45;76.53;;;34.13;;
45198;SDS011;30941;46.422;18.772;2023-12-20T05:58:11;80.25;;;34.00;;
45198;SDS011;30941;46.422;18.772;2023-12-20T06:00:36;81.43;;;35.17;;
45198;SDS011;30941;46.422;18.772;2023-12-20T06:03:02;78.60;;;34.95;;
45198;SDS011;30941;46.422;18.772;2023-12-20T06:05:27;88.95;;;35.83;;
45198;SDS011;30941;46.422;18.772;2023-12-20T06:07:53;73.70;;;34.13;;
45198;SDS011;30941;46.422;18.772;2023-12-20T06:10:19;77.32;;;34.83;;
45198;SDS011;30941;46.422;18.772;2023-12-20T06:12:45;83.32;;;36.97;;
45198;SDS011;30941;46.422;18.772;2023-12-20T06:15:12;76.38;;;33.50;;
45198;SDS011;30941;46.422;18.772;2023-12-20T06:17:37;91.03;;;38.15;;
45198;SDS011;30941;46.422;18.772;2023-12-20T06:20:03;80.88;;;35.55;;
45198;SDS011;30941;46.422;18.772;2023-12-20T06:22:32;77.07;;;37.72;;
45198;SDS011;30941;46.422;18.772;2023-12-20T06:24:58;110.53;;;37.10;;
45198;SDS011;30941;46.422;18.772;2023-12-20T06:27:23;109.03;;;36.47;;
45198;SDS011;30941;46.422;18.772;2023-12-20T06:29:48;89.22;;;35.72;;
45198;SDS011;30941;46.422;18.772;2023-12-20T06:32:14;91.93;;;36.65;;
45198;SDS011;30941;46.422;18.772;2023-12-20T06:34:39;72.45;;;34.75;;
45198;SDS011;30941;46.422;18.772;2023-12-20T06:37:04;92.75;;;36.63;;
45198;SDS011;30941;46.422;18.772;2023-12-20T06:39:30;85.75;;;33.78;;
45198;SDS011;30941;46.422;18.772;2023-12-20T06:41:55;84.20;;;36.92;;
45198;SDS011;30941;46.422;18.772;2023-12-20T06:44:21;91.25;;;36.88;;
45198;SDS011;30941;46.422;18.772;2023-12-20T06:46:46;78.82;;;35.97;;
45198;SDS011;30941;46.422;18.772;2023-12-20T06:49:11;83.88;;;36.83;;
45198;SDS011;30941;46.422;18.772;2023-12-20T06:51:37;79.00;;;35.40;;
45198;SDS011;30941;46.422;18.772;2023-12-20T06:54:02;81.82;;;34.42;;
45198;SDS011;30941;46.422;18.772;2023-12-20T06:56:28;87.00;;;37.95;;
45198;SDS011;30941;46.422;18.772;2023-12-20T06:58:53;79.85;;;35.95;;
45198;SDS011;30941;46.422;18.772;2023-12-20T07:01:19;76.15;;;33.63;;
45198;SDS011;30941;46.422;18.772;2023-12-20T07:03:44;79.43;;;34.13;;
45198;SDS011;30941;46.422;18.772;2023-12-20T07:06:10;82.47;;;36.28;;
45198;SDS011;30941;46.422;18.772;2023-12-20T07:08:35;80.50;;;34.80;;
45198;SDS011;30941;46.422;18.772;2023-12-20T07:11:00;90.28;;;33.85;;
45198;SDS011;30941;46.422;18.772;2023-12-20T07:13:26;88.70;;;34.65;;
45198;SDS011;30941;46.422;18.772;2023-12-20T07:15:51;91.65;;;36.03;;
45198;SDS011;30941;46.422;18.772;2023-12-20T07:18:16;101.07;;;36.50;;
45198;SDS011;30941;46.422;18.772;2023-12-20T07:20:42;83.40;;;37.38;;
45198;SDS011;30941;46.422;18.772;2023-12-20T07:23:08;86.90;;;36.92;;
45198;SDS011;30941;46.422;18.772;2023-12-20T07:25:33;99.28;;;40.95;;
45198;SDS011;30941;46.422;18.772;2023-12-20T07:27:59;96.65;;;38.42;;
45198;SDS011;30941;46.422;18.772;2023-12-20T07:30:24;87.88;;;37.30;;
45198;SDS011;30941;46.422;18.772;2023-12-20T07:32:49;81.40;;;35.33;;
45198;SDS011;30941;46.422;18.772;2023-12-20T07:35:15;68.45;;;32.10;;
45198;SDS011;30941;46.422;18.772;2023-12-20T07:37:41;70.53;;;31.67;;
45198;SDS011;30941;46.422;18.772;2023-12-20T07:40:06;76.07;;;34.00;;
45198;SDS011;30941;46.422;18.772;2023-12-20T07:42:32;73.93;;;31.73;;
45198;SDS011;30941;46.422;18.772;2023-12-20T07:44:58;82.50;;;33.40;;
45198;SDS011;30941;46.422;18.772;2023-12-20T07:47:23;80.60;;;32.47;;
45198;SDS011;30941;46.422;18.772;2023-12-20T07:49:50;76.93;;;32.75;;
45198;SDS011;30941;46.422;18.772;2023-12-20T07:52:16;85.00;;;34.70;;
45198;SDS011;30941;46.422;18.772;2023-12-20T07:54:43;75.85;;;31.17;;
45198;SDS011;30941;46.422;18.772;2023-12-20T07:57:08;82.95;;;32.70;;
45198;SDS011;30941;46.422;18.772;2023-12-20T07:59:35;76.25;;;33.45;;
45198;SDS011;30941;46.422;18.772;2023-12-20T08:02:01;72.45;;;33.90;;
45198;SDS011;30941;46.422;18.772;2023-12-20T08:04:26;79.10;;;31.95;;
45198;SDS011;30941;46.422;18.772;2023-12-20T08:06:52;75.13;;;33.13;;
45198;SDS011;30941;46.422;18.772;2023-12-20T08:09:17;76.07;;;33.38;;
45198;SDS011;30941;46.422;18.772;2023-12-20T08:11:46;79.18;;;35.92;;
45198;SDS011;30941;46.422;18.772;2023-12-20T08:14:12;70.25;;;32.78;;
45198;SDS011;30941;46.422;18.772;2023-12-20T08:16:37;75.05;;;35.47;;
45198;SDS011;30941;46.422;18.772;2023-12-20T08:19:03;78.88;;;34.63;;
45198;SDS011;30941;46.422;18.772;2023-12-20T08:21:28;82.72;;;37.80;;
45198;SDS011;30941;46.422;18.772;2023-12-20T08:23:53;84.30;;;36.13;;
45198;SDS011;30941;46.422;18.772;2023-12-20T08:26:19;79.15;;;37.97;;
45198;SDS011;30941;46.422;18.772;2023-12-20T08:28:48;83.43;;;38.42;;
45198;SDS011;30941;46.422;18.772;2023-12-20T08:31:16;89.85;;;39.25;;
45198;SDS011;30941;46.422;18.772;2023-12-20T08:33:43;78.10;;;34.17;;
45198;SDS011;30941;46.422;18.772;2023-12-20T08:36:09;82.25;;;36.85;;
45198;SDS011;30941;46.422;18.772;2023-12-20T08:38:34;72.70;;;32.22;;
45198;SDS011;30941;46.422;18.772;2023-12-20T08:40:59;73.57;;;33.25;;
45198;SDS011;30941;46.422;18.772;2023-12-20T08:43:26;75.97;;;33.75;;
45198;SDS011;30941;46.422;18.772;2023-12-20T08:45:51;78.95;;;34.92;;
45198;SDS011;30941;46.422;18.772;2023-12-20T08:48:17;79.20;;;34.10;;
45198;SDS011;30941;46.422;18.772;2023-12-20T08:50:42;72.15;;;33.03;;
45198;SDS011;30941;46.422;18.772;2023-12-20T08:53:08;66.60;;;32.28;;
45198;SDS011;30941;46.422;18.772;2023-12-20T08:55:33;66.25;;;30.58;;
45198;SDS011;30941;46.422;18.772;2023-12-20T08:57:59;71.10;;;30.17;;
45198;SDS011;30941;46.422;18.772;2023-12-20T09:00:24;65.40;;;30.02;;
45198;SDS011;30941;46.422;18.772;2023-12-20T09:02:52;76.53;;;33.30;;
45198;SDS011;30941;46.422;18.772;2023-12-20T09:05:18;64.78;;;32.10;;
45198;SDS011;30941;46.422;18.772;2023-12-20T09:07:43;66.25;;;31.88;;
45198;SDS011;30941;46.422;18.772;2023-12-20T09:10:08;65.75;;;30.85;;
45198;SDS011;30941;46.422;18.772;2023-12-20T09:12:34;73.82;;;30.85;;
45198;SDS011;30941;46.422;18.772;2023-12-20T09:14:59;68.32;;;31.25;;
45198;SDS011;30941;46.422;18.772;2023-12-20T09:17:27;77.05;;;33.65;;
45198;SDS011;30941;46.422;18.772;2023-12-20T09:19:52;76.22;;;34.53;;
45198;SDS011;30941;46.422;18.772;2023-12-20T09:22:19;74.75;;;32.75;;
45198;SDS011;30941;46.422;18.772;2023-12-20T09:24:44;68.50;;;29.45;;
45198;SDS011;30941;46.422;18.772;2023-12-20T09:27:09;70.90;;;31.10;;
45198;SDS011;30941;46.422;18.772;2023-12-20T09:29:35;61.90;;;27.77;;
45198;SDS011;30941;46.422;18.772;2023-12-20T09:32:00;69.60;;;31.05;;
45198;SDS011;30941;46.422;18.772;2023-12-20T09:34:26;62.83;;;27.83;;
45198;SDS011;30941;46.422;18.772;2023-12-20T09:36:52;60.35;;;28.85;;
45198;SDS011;30941;46.422;18.772;2023-12-20T09:39:18;64.68;;;27.23;;
45198;SDS011;30941;46.422;18.772;2023-12-20T09:42:05;69.93;;;30.73;;
45198;SDS011;30941;46.422;18.772;2023-12-20T09:44:31;64.25;;;27.67;;
45198;SDS011;30941;46.422;18.772;2023-12-20T09:47:04;66.80;;;28.42;;
45198;SDS011;30941;46.422;18.772;2023-12-20T09:49:30;63.08;;;29.38;;
45198;SDS011;30941;46.422;18.772;2023-12-20T09:51:56;59.08;;;28.35;;
45198;SDS011;30941;46.422;18.772;2023-12-20T09:54:21;67.95;;;28.48;;
45198;SDS011;30941;46.422;18.772;2023-12-20T09:56:48;63.38;;;26.05;;
45198;SDS011;30941;46.422;18.772;2023-12-20T09:59:14;56.50;;;26.10;;
45198;SDS011;30941;46.422;18.772;2023-12-20T10:01:40;57.78;;;27.33;;
45198;SDS011;30941;46.422;18.772;2023-12-20T10:04:06;57.80;;;26.63;;
45198;SDS011;30941;46.422;18.772;2023-12-20T10:06:34;59.40;;;28.50;;
45198;SDS011;30941;46.422;18.772;2023-12-20T10:09:00;63.30;;;27.02;;
45198;SDS011;30941;46.422;18.772;2023-12-20T10:11:26;63.80;;;29.65;;
45198;SDS011;30941;46.422;18.772;2023-12-20T10:13:53;65.35;;;28.77;;
45198;SDS011;30941;46.422;18.772;2023-12-20T10:18:52;65.05;;;28.88;;
45198;SDS011;30941;46.422;18.772;2023-12-20T10:21:18;68.65;;;29.98;;
45198;SDS011;30941;46.422;18.772;2023-12-20T10:23:44;64.90;;;29.77;;
45198;SDS011;30941;46.422;18.772;2023-12-20T10:26:09;71.90;;;31.63;;
45198;SDS011;30941;46.422;18.772;2023-12-20T10:28:34;63.30;;;30.25;;
45198;SDS011;30941;46.422;18.772;2023-12-20T10:31:00;67.35;;;31.25;;
45198;SDS011;30941;46.422;18.772;2023-12-20T10:33:26;68.05;;;29.42;;
45198;SDS011;30941;46.422;18.772;2023-12-20T10:35:54;68.80;;;30.02;;
45198;SDS011;30941;46.422;18.772;2023-12-20T10:38:20;80.38;;;32.20;;
45198;SDS011;30941;46.422;18.772;2023-12-20T10:40:45;67.93;;;29.52;;
45198;SDS011;30941;46.422;18.772;2023-12-20T10:43:11;71.18;;;30.27;;
45198;SDS011;30941;46.422;18.772;2023-12-20T10:45:37;64.55;;;29.83;;
45198;SDS011;30941;46.422;18.772;2023-12-20T10:48:02;68.65;;;31.65;;
45198;SDS011;30941;46.422;18.772;2023-12-20T10:50:29;67.90;;;31.45;;
45198;SDS011;30941;46.422;18.772;2023-12-20T10:52:56;66.25;;;29.42;;
45198;SDS011;30941;46.422;18.772;2023-12-20T10:55:22;73.45;;;31.10;;
45198;SDS011;30941;46.422;18.772;2023-12-20T10:58:11;68.55;;;30.08;;
45198;SDS011;30941;46.422;18.772;2023-12-20T11:00:39;62.20;;;28.20;;
45198;SDS011;30941;46.422;18.772;2023-12-20T11:03:06;60.53;;;28.42;;
45198;SDS011;30941;46.422;18.772;2023-12-20T11:05:46;62.97;;;29.60;;
45198;SDS011;30941;46.422;18.772;2023-12-20T11:08:25;68.95;;;30.90;;
45198;SDS011;30941;46.422;18.772;2023-12-20T11:11:06;65.50;;;28.98;;
45198;SDS011;30941;46.422;18.772;2023-12-20T11:13:36;68.22;;;29.73;;
45198;SDS011;30941;46.422;18.772;2023-12-20T11:16:04;65.07;;;30.23;;
45198;SDS011;30941;46.422;18.772;2023-12-20T11:18:30;62.38;;;30.42;;
45198;SDS011;30941;46.422;18.772;2023-12-20T11:21:00;65.88;;;29.63;;
45198;SDS011;30941;46.422;18.772;2023-12-20T11:23:27;65.93;;;29.50;;
45198;SDS011;30941;46.422;18.772;2023-12-20T11:25:53;71.95;;;32.15;;
45198;SDS011;30941;46.422;18.772;2023-12-20T11:28:23;66.40;;;30.52;;
45198;SDS011;30941;46.422;18.772;2023-12-20T11:33:23;66.85;;;31.58;;
45198;SDS011;30941;46.422;18.772;2023-12-20T11:35:55;68.47;;;30.92;;
45198;SDS011;30941;46.422;18.772;2023-12-20T11:38:21;67.53;;;31.58;;
45198;SDS011;30941;46.422;18.772;2023-12-20T11:40:49;67.20;;;31.42;;
45198;SDS011;30941;46.422;18.772;2023-12-20T11:46:17;71.32;;;33.58;;
45198;SDS011;30941;46.422;18.772;2023-12-20T11:48:43;79.22;;;35.70;;
45198;SDS011;30941;46.422;18.772;2023-12-20T11:51:12;73.28;;;33.90;;
45198;SDS011;30941;46.422;18.772;2023-12-20T11:53:38;73.85;;;32.08;;
45198;SDS011;30941;46.422;18.772;2023-12-20T11:56:09;74.75;;;33.30;;
45198;SDS011;30941;46.422;18.772;2023-12-20T11:58:35;69.03;;;32.30;;
45198;SDS011;30941;46.422;18.772;2023-12-20T12:01:01;68.65;;;30.95;;
45198;SDS011;30941;46.422;18.772;2023-12-20T12:03:29;62.45;;;30.60;;
45198;SDS011;30941;46.422;18.772;2023-12-20T12:05:55;67.97;;;32.00;;
45198;SDS011;30941;46.422;18.772;2023-12-20T12:08:20;72.38;;;32.58;;
45198;SDS011;30941;46.422;18.772;2023-12-20T12:10:46;70.97;;;32.92;;
45198;SDS011;30941;46.422;18.772;2023-12-20T12:13:11;64.32;;;30.73;;
45198;SDS011;30941;46.422;18.772;2023-12-20T12:15:37;92.22;;;41.67;;
45198;SDS011;30941;46.422;18.772;2023-12-20T12:18:02;68.35;;;35.28;;
45198;SDS011;30941;46.422;18.772;2023-12-20T12:20:28;65.85;;;31.85;;
45198;SDS011;30941;46.422;18.772;2023-12-20T12:22:57;66.68;;;31.60;;
45198;SDS011;30941;46.422;18.772;2023-12-20T12:25:30;58.50;;;29.60;;
45198;SDS011;30941;46.422;18.772;2023-12-20T12:27:56;69.05;;;32.80;;
45198;SDS011;30941;46.422;18.772;2023-12-20T12:30:22;64.90;;;31.65;;
45198;SDS011;30941;46.422;18.772;2023-12-20T12:32:48;61.05;;;30.38;;
45198;SDS011;30941;46.422;18.772;2023-12-20T12:35:13;67.22;;;30.92;;
45198;SDS011;30941;46.422;18.772;2023-12-20T12:37:40;63.50;;;31.52;;
45198;SDS011;30941;46.422;18.772;2023-12-20T12:40:15;65.75;;;31.63;;
45198;SDS011;30941;46.422;18.772;2023-12-20T12:42:42;61.38;;;32.70;;
45198;SDS011;30941;46.422;18.772;2023-12-20T12:45:09;60.38;;;30.88;;
45198;SDS011;30941;46.422;18.772;2023-12-20T12:47:36;62.40;;;30.10;;
45198;SDS011;30941;46.422;18.772;2023-12-20T12:50:01;60.25;;;30.15;;
45198;SDS011;30941;46.422;18.772;2023-12-20T12:52:27;70.53;;;33.25;;
45198;SDS011;30941;46.422;18.772;2023-12-20T12:54:53;68.10;;;34.28;;
45198;SDS011;30941;46.422;18.772;2023-12-20T12:57:18;63.15;;;30.88;;
45198;SDS011;30941;46.422;18.772;2023-12-20T12:59:44;62.28;;;30.65;;
45198;SDS011;30941;46.422;18.772;2023-12-20T13:02:13;53.17;;;28.33;;
45198;SDS011;30941;46.422;18.772;2023-12-20T13:04:39;56.47;;;27.33;;
45198;SDS011;30941;46.422;18.772;2023-12-20T13:07:06;58.67;;;28.60;;
45198;SDS011;30941;46.422;18.772;2023-12-20T13:09:31;51.28;;;27.83;;
45198;SDS011;30941;46.422;18.772;2023-12-20T13:11:56;51.47;;;26.85;;
45198;SDS011;30941;46.422;18.772;2023-12-20T13:14:22;50.92;;;27.40;;
45198;SDS011;30941;46.422;18.772;2023-12-20T13:16:47;51.03;;;26.70;;
45198;SDS011;30941;46.422;18.772;2023-12-20T13:19:13;47.17;;;24.92;;
45198;SDS011;30941;46.422;18.772;2023-12-20T13:21:38;47.58;;;25.40;;
45198;SDS011;30941;46.422;18.772;2023-12-20T13:24:04;51.13;;;27.08;;
45198;SDS011;30941;46.422;18.772;2023-12-20T13:26:30;53.28;;;27.40;;
45198;SDS011;30941;46.422;18.772;2023-12-20T13:28:55;52.35;;;25.55;;
45198;SDS011;30941;46.422;18.772;2023-12-20T13:31:21;52.67;;;25.60;;
45198;SDS011;30941;46.422;18.772;2023-12-20T13:33:46;50.75;;;26.73;;
45198;SDS011;30941;46.422;18.772;2023-12-20T13:36:12;56.83;;;29.77;;
45198;SDS011;30941;46.422;18.772;2023-12-20T13:38:38;61.60;;;32.08;;
45198;SDS011;30941;46.422;18.772;2023-12-20T13:41:03;58.75;;;31.38;;
45198;SDS011;30941;46.422;18.772;2023-12-20T13:43:29;61.40;;;32.58;;
45198;SDS011;30941;46.422;18.772;2023-12-20T13:45:57;62.28;;;32.65;;
45198;SDS011;30941;46.422;18.772;2023-12-20T13:48:22;64.25;;;35.33;;
45198;SDS011;30941;46.422;18.772;2023-12-20T13:50:47;73.15;;;35.30;;
45198;SDS011;30941;46.422;18.772;2023-12-20T13:53:13;65.80;;;34.05;;
45198;SDS011;30941;46.422;18.772;2023-12-20T13:55:39;65.07;;;34.35;;
45198;SDS011;30941;46.422;18.772;2023-12-20T13:58:05;71.38;;;35.50;;
45198;SDS011;30941;46.422;18.772;2023-12-20T14:00:30;77.47;;;39.40;;
45198;SDS011;30941;46.422;18.772;2023-12-20T14:02:56;87.78;;;44.65;;
45198;SDS011;30941;46.422;18.772;2023-12-20T14:05:21;87.70;;;46.47;;